4F1 weather

Westport Airport
Westport, Oklahoma, United States

Public forecast

Using degrees Fahrenheit for public forecast. Weather courtesy of forecast.io.

METAR (pilot weather report)

Closest report is William R. Pogue Municipal Airport, 9.8 nm (18.2 km) ESE. Retrieved 2019/04/23 18:35 UTC (0 seconds ago):

KOWP 231835Z AUTO 04010KT 10SM OVC009 17/14 A2997 RMK AO2 T01680141 PWINO

TAF (pilot weather forecast)

Closest forecast is Richard Lloyd Jones Jr Airport, 20.7 nm (38.3 km) ESE. Retrieved 2019/04/23 18:22 UTC (0 seconds ago):

TAF KRVS 231720Z 2318/2418 01005KT P6SM VCSH SCT015 OVC050 FM240100 01004KT P6SM OVC015 FM240700 35004KT P6SM BKN010 FM241400 36005KT P6SM BKN015